createdAt,value
2023-03-19T00:00:54.054Z,74.41
2023-03-19T00:03:22.295Z,74.57
2023-03-19T00:05:53.860Z,74.00
2023-03-19T00:08:21.547Z,73.19
2023-03-19T00:10:49.253Z,73.52
2023-03-19T00:13:16.408Z,73.84
2023-03-19T00:16:03.946Z,74.96
2023-03-19T00:18:31.544Z,76.13
2023-03-19T00:20:59.042Z,76.91
2023-03-19T00:23:27.129Z,76.61
2023-03-19T00:25:55.573Z,75.86
2023-03-19T00:28:23.132Z,74.79
2023-03-19T00:30:50.593Z,74.77
2023-03-19T00:33:18.315Z,74.35
2023-03-19T00:35:46.365Z,74.57
2023-03-19T00:38:14.094Z,73.97
2023-03-19T00:40:43.140Z,73.38
2023-03-19T00:43:11.006Z,73.18
2023-03-19T00:45:39.062Z,73.81
2023-03-19T00:48:07.984Z,73.66
2023-03-19T00:50:35.998Z,73.75
2023-03-19T00:53:04.111Z,74.23
2023-03-19T00:55:32.667Z,73.30
2023-03-19T00:58:00.882Z,73.41
2023-03-19T01:00:28.749Z,73.49
2023-03-19T01:02:56.730Z,73.62
2023-03-19T01:05:24.954Z,73.89
2023-03-19T01:07:52.701Z,73.75
2023-03-19T01:10:42.968Z,73.14
2023-03-19T01:13:11.028Z,72.68
2023-03-19T01:15:42.599Z,71.99
2023-03-19T01:18:10.739Z,72.68
2023-03-19T01:20:39.335Z,73.47
2023-03-19T01:23:07.905Z,73.92
2023-03-19T01:25:36.424Z,74.93
2023-03-19T01:28:04.983Z,74.89
2023-03-19T01:30:32.898Z,74.04
2023-03-19T01:33:00.663Z,73.86
2023-03-19T01:35:29.056Z,74.26
2023-03-19T01:37:56.880Z,74.92
2023-03-19T01:40:24.639Z,75.51
2023-03-19T01:43:16.157Z,75.27
2023-03-19T01:45:43.638Z,75.55
2023-03-19T01:48:37.735Z,75.75
2023-03-19T01:51:07.547Z,74.75
2023-03-19T01:53:38.803Z,74.62
2023-03-19T01:56:36.609Z,75.43
2023-03-19T01:59:07.654Z,75.24
2023-03-19T02:01:35.912Z,74.52
2023-03-19T02:04:03.832Z,73.48
2023-03-19T02:06:31.148Z,73.42
2023-03-19T02:08:58.842Z,74.40
2023-03-19T02:11:27.298Z,74.21
2023-03-19T02:13:54.437Z,74.70
2023-03-19T02:16:21.775Z,75.26
2023-03-19T02:18:49.594Z,76.00
2023-03-19T02:21:17.713Z,75.88
2023-03-19T02:24:17.106Z,75.86
2023-03-19T02:26:43.764Z,76.43
2023-03-19T02:29:11.911Z,76.87
2023-03-19T02:31:40.253Z,76.77
2023-03-19T02:34:27.418Z,78.30
2023-03-19T02:37:19.628Z,79.77
2023-03-19T02:39:49.573Z,80.84
2023-03-19T02:42:16.945Z,80.83
2023-03-19T02:44:44.810Z,80.55
2023-03-19T02:47:12.367Z,79.84
2023-03-19T02:49:39.912Z,80.35
2023-03-19T02:52:09.615Z,80.17
2023-03-19T02:54:37.283Z,80.20
2023-03-19T02:57:06.929Z,80.40
2023-03-19T02:59:34.594Z,81.04
2023-03-19T03:02:02.248Z,82.36
2023-03-19T03:04:30.517Z,82.85
2023-03-19T03:06:58.397Z,82.62
2023-03-19T03:09:27.314Z,83.13
2023-03-19T03:11:55.047Z,83.65
2023-03-19T03:14:23.018Z,84.27
2023-03-19T03:16:51.532Z,84.11
2023-03-19T03:19:18.735Z,83.55
2023-03-19T03:21:46.734Z,84.06
2023-03-19T03:24:15.293Z,84.10
2023-03-19T03:26:46.051Z,84.19
2023-03-19T03:29:13.970Z,84.59
2023-03-19T03:31:41.704Z,85.04
2023-03-19T03:34:10.230Z,84.29
2023-03-19T03:36:40.900Z,83.32
2023-03-19T03:39:11.895Z,82.44
2023-03-19T03:41:40.779Z,81.70
2023-03-19T03:44:08.581Z,81.34
2023-03-19T03:46:36.868Z,81.25
2023-03-19T03:49:05.121Z,81.28
2023-03-19T03:51:32.945Z,81.37
2023-03-19T03:54:01.058Z,81.45
2023-03-19T03:56:28.817Z,81.21
2023-03-19T03:58:56.998Z,81.43
2023-03-19T04:01:24.652Z,80.97
2023-03-19T04:03:52.775Z,81.29
2023-03-19T04:06:22.784Z,81.69
2023-03-19T04:08:51.231Z,81.40
2023-03-19T04:11:19.356Z,81.96
2023-03-19T04:13:47.532Z,82.57
2023-03-19T04:16:15.851Z,82.34
2023-03-19T04:18:43.924Z,82.45
2023-03-19T04:21:11.907Z,82.92
2023-03-19T04:23:39.942Z,82.81
2023-03-19T04:26:10.710Z,82.93
2023-03-19T04:28:38.818Z,83.25
2023-03-19T04:31:08.210Z,83.21
2023-03-19T04:33:36.318Z,82.41
2023-03-19T04:36:04.962Z,82.94
2023-03-19T04:38:32.946Z,82.86
2023-03-19T04:41:01.732Z,83.26
2023-03-19T04:43:30.402Z,82.59
2023-03-19T04:45:59.090Z,82.93
2023-03-19T04:48:27.632Z,82.51
2023-03-19T04:50:57.225Z,82.41
2023-03-19T04:53:25.021Z,82.96
2023-03-19T04:55:53.274Z,83.31
2023-03-19T04:58:21.509Z,83.50
2023-03-19T05:00:49.299Z,84.05
2023-03-19T05:03:17.174Z,83.54
2023-03-19T05:05:45.328Z,83.70
2023-03-19T05:08:13.824Z,84.03
2023-03-19T05:10:42.050Z,84.18
2023-03-19T05:13:09.680Z,84.22
2023-03-19T05:15:37.966Z,85.61
2023-03-19T05:18:06.256Z,87.07
2023-03-19T05:20:34.782Z,87.46
2023-03-19T05:23:05.540Z,86.59
2023-03-19T05:25:35.315Z,86.24
2023-03-19T05:28:04.224Z,85.48
2023-03-19T05:30:32.224Z,85.82
2023-03-19T05:32:59.917Z,86.10
2023-03-19T05:35:28.041Z,85.95
2023-03-19T05:37:59.351Z,85.36
2023-03-19T05:40:30.352Z,86.00
2023-03-19T05:42:57.910Z,86.03
2023-03-19T05:45:25.759Z,86.13
2023-03-19T05:47:53.820Z,86.08
2023-03-19T05:50:26.789Z,86.18
2023-03-19T05:52:54.961Z,86.47
2023-03-19T05:55:24.502Z,86.36
2023-03-19T05:57:52.531Z,87.15
2023-03-19T06:00:22.656Z,87.12
2023-03-19T06:02:51.479Z,86.91
2023-03-19T06:05:42.475Z,87.69
2023-03-19T06:08:13.107Z,87.45
2023-03-19T06:10:40.950Z,87.86
2023-03-19T06:13:08.963Z,87.37
2023-03-19T06:15:36.870Z,88.07
2023-03-19T06:18:08.482Z,88.18
2023-03-19T06:20:36.502Z,87.30
2023-03-19T06:23:10.196Z,87.61
2023-03-19T06:25:45.481Z,86.98
2023-03-19T06:28:14.928Z,87.66
2023-03-19T06:30:42.911Z,87.35
2023-03-19T06:33:16.517Z,86.58
2023-03-19T06:35:44.442Z,87.18
2023-03-19T06:38:13.355Z,87.36
2023-03-19T06:40:41.205Z,87.92
2023-03-19T06:43:09.446Z,88.93
2023-03-19T06:45:37.482Z,89.50
2023-03-19T06:48:05.947Z,89.75
2023-03-19T06:50:33.824Z,89.76
2023-03-19T06:53:02.496Z,90.69
2023-03-19T06:55:31.217Z,91.18
2023-03-19T06:57:59.491Z,91.75
2023-03-19T07:00:27.957Z,92.34
2023-03-19T07:02:55.900Z,93.88
2023-03-19T07:05:23.896Z,93.69
2023-03-19T07:07:52.396Z,94.59
2023-03-19T07:10:21.541Z,95.22
2023-03-19T07:12:49.765Z,96.32
2023-03-19T07:15:17.829Z,96.98
2023-03-19T07:17:47.208Z,98.09
2023-03-19T07:20:15.739Z,97.04
2023-03-19T07:22:43.393Z,97.23
2023-03-19T07:25:11.993Z,96.14
2023-03-19T07:27:39.489Z,94.90
2023-03-19T07:30:10.074Z,94.22
2023-03-19T07:32:38.930Z,93.82
2023-03-19T07:35:10.403Z,93.73
2023-03-19T07:37:38.312Z,93.04
2023-03-19T07:40:07.884Z,92.23
2023-03-19T07:42:36.579Z,91.77
2023-03-19T07:45:06.018Z,89.91
2023-03-19T07:47:34.169Z,90.10
2023-03-19T07:50:01.787Z,89.01
2023-03-19T07:52:29.891Z,88.10
2023-03-19T07:55:00.657Z,88.10
2023-03-19T07:57:28.367Z,87.71
2023-03-19T07:59:56.583Z,87.61
2023-03-19T08:02:24.820Z,86.74
2023-03-19T08:04:53.228Z,86.71
2023-03-19T08:07:21.928Z,86.85
2023-03-19T08:09:49.651Z,86.24
2023-03-19T08:12:17.615Z,85.57
2023-03-19T08:14:45.359Z,83.97
2023-03-19T08:17:13.757Z,83.83
2023-03-19T08:19:41.894Z,83.05
2023-03-19T08:22:13.410Z,82.10
2023-03-19T08:24:41.099Z,82.18
2023-03-19T08:27:09.418Z,81.98
2023-03-19T08:29:37.461Z,82.15
2023-03-19T08:32:05.690Z,80.97
2023-03-19T08:34:33.482Z,81.53
2023-03-19T08:37:01.507Z,81.36
2023-03-19T08:39:29.386Z,80.69
2023-03-19T08:41:57.638Z,81.05
2023-03-19T08:44:25.296Z,80.87
2023-03-19T08:46:53.682Z,80.51
2023-03-19T08:49:21.543Z,80.33
2023-03-19T08:51:49.852Z,80.62
2023-03-19T08:54:17.801Z,79.97
2023-03-19T08:56:45.719Z,80.11
2023-03-19T08:59:13.674Z,80.58
2023-03-19T09:01:41.827Z,79.63
2023-03-19T09:04:09.916Z,79.46
2023-03-19T09:06:37.942Z,79.03
2023-03-19T09:09:06.515Z,79.29
2023-03-19T09:11:34.580Z,79.31
2023-03-19T09:14:02.664Z,79.22
2023-03-19T09:16:31.454Z,78.79
2023-03-19T09:18:59.598Z,78.39
2023-03-19T09:21:27.727Z,78.26
2023-03-19T09:23:55.555Z,78.60
2023-03-19T09:26:26.236Z,78.30
2023-03-19T09:28:53.861Z,78.57
2023-03-19T09:31:21.643Z,78.09
2023-03-19T09:33:49.837Z,77.47
2023-03-19T09:36:17.928Z,76.54
2023-03-19T09:38:46.552Z,76.63
2023-03-19T09:41:20.876Z,76.35
2023-03-19T09:43:58.914Z,75.45
2023-03-19T09:46:55.260Z,75.55
2023-03-19T09:49:23.565Z,74.04
2023-03-19T09:51:56.145Z,73.52
2023-03-19T09:54:28.436Z,73.10
2023-03-19T09:56:56.067Z,72.22
2023-03-19T09:59:24.159Z,71.34
2023-03-19T10:02:11.035Z,70.93
2023-03-19T10:05:11.702Z,69.38
2023-03-19T10:08:13.575Z,68.19
2023-03-19T10:10:49.451Z,67.95
2023-03-19T10:13:47.338Z,66.27
2023-03-19T10:16:19.172Z,64.65
2023-03-19T10:18:52.150Z,63.98
2023-03-19T10:21:37.403Z,62.03
2023-03-19T10:24:23.086Z,58.75
2023-03-19T10:26:52.833Z,56.08
2023-03-19T10:29:20.927Z,55.97
2023-03-19T10:31:50.317Z,56.41
2023-03-19T10:34:32.815Z,52.02
2023-03-19T10:37:01.704Z,53.07
2023-03-19T10:39:29.367Z,52.85
2023-03-19T10:42:10.437Z,50.46
2023-03-19T10:44:48.815Z,50.70
2023-03-19T10:47:18.204Z,49.15
2023-03-19T10:49:45.888Z,49.73
2023-03-19T10:52:22.907Z,50.55
2023-03-19T10:54:53.309Z,49.15
2023-03-19T10:57:28.445Z,48.44
2023-03-19T10:59:56.557Z,47.42
2023-03-19T11:02:31.180Z,46.96
2023-03-19T11:05:22.333Z,44.54
2023-03-19T11:08:10.527Z,40.78
2023-03-19T11:10:38.728Z,38.41
2023-03-19T11:13:07.626Z,37.48
2023-03-19T11:15:38.805Z,37.69
2023-03-19T11:18:24.340Z,36.83
2023-03-19T11:21:02.426Z,35.30
2023-03-19T11:23:30.475Z,34.38
2023-03-19T11:26:21.724Z,34.78
2023-03-19T11:28:52.612Z,35.40
2023-03-19T11:31:20.965Z,35.08
2023-03-19T11:34:03.481Z,34.59
2023-03-19T11:36:50.195Z,34.46
2023-03-19T11:39:37.305Z,35.08
2023-03-19T11:42:04.136Z,34.86
2023-03-19T11:44:40.294Z,35.41
2023-03-19T11:47:27.127Z,35.20
2023-03-19T11:49:54.377Z,35.97
2023-03-19T11:52:53.360Z,35.81
2023-03-19T11:55:27.959Z,36.56
2023-03-19T11:58:19.202Z,38.43
2023-03-19T12:00:57.239Z,36.90
2023-03-19T12:03:28.744Z,36.73
2023-03-19T12:06:04.563Z,37.90
2023-03-19T12:08:43.763Z,37.23
2023-03-19T12:11:43.787Z,36.72
2023-03-19T12:14:35.852Z,37.76
2023-03-19T12:17:17.644Z,37.83
2023-03-19T12:20:05.627Z,38.40
2023-03-19T12:22:53.778Z,39.17
2023-03-19T12:25:39.293Z,38.97
2023-03-19T12:28:21.128Z,40.14
2023-03-19T12:30:57.896Z,40.30
2023-03-19T12:33:43.710Z,40.68
2023-03-19T12:36:14.433Z,40.70
2023-03-19T12:38:48.535Z,41.24
2023-03-19T12:41:20.600Z,41.53
2023-03-19T12:44:02.431Z,40.77
2023-03-19T12:46:32.989Z,39.79
2023-03-19T12:49:11.710Z,39.48
2023-03-19T12:51:41.901Z,38.01
2023-03-19T12:54:12.988Z,37.10
2023-03-19T12:56:40.727Z,36.04
2023-03-19T12:59:28.959Z,34.38
2023-03-19T13:02:25.965Z,32.92
2023-03-19T13:05:08.400Z,34.20
2023-03-19T13:08:19.032Z,32.63
2023-03-19T13:10:46.654Z,32.00
2023-03-19T13:13:32.285Z,32.67
2023-03-19T13:16:24.176Z,32.17
2023-03-19T13:18:58.396Z,32.24
2023-03-19T13:21:33.094Z,32.45
2023-03-19T13:24:13.297Z,31.41
2023-03-19T13:26:46.129Z,31.77
2023-03-19T13:29:23.806Z,31.86
2023-03-19T13:31:52.063Z,32.48
2023-03-19T13:34:38.604Z,33.30
2023-03-19T13:37:11.221Z,34.22
2023-03-19T13:39:37.943Z,34.60
2023-03-19T13:42:42.909Z,35.39
2023-03-19T13:45:29.876Z,35.58
2023-03-19T13:47:58.579Z,34.88
2023-03-19T13:50:28.353Z,33.92
2023-03-19T13:53:34.701Z,34.00
2023-03-19T13:56:05.684Z,34.00
2023-03-19T13:59:13.794Z,33.60
2023-03-19T14:01:45.735Z,34.72
2023-03-19T14:04:23.615Z,34.25
2023-03-19T14:07:09.799Z,34.87
2023-03-19T14:09:49.524Z,35.66
2023-03-19T14:12:16.431Z,36.57
2023-03-19T14:14:49.542Z,37.66
2023-03-19T14:17:36.165Z,37.94
2023-03-19T14:20:12.733Z,39.06
2023-03-19T14:22:56.461Z,40.11
2023-03-19T14:25:25.197Z,40.30
2023-03-19T14:27:55.025Z,40.75
2023-03-19T14:31:05.507Z,41.10
2023-03-19T14:33:45.989Z,42.05
2023-03-19T14:36:15.126Z,42.25
2023-03-19T14:38:53.826Z,42.12
2023-03-19T14:41:23.248Z,42.31
2023-03-19T14:44:14.190Z,41.54
2023-03-19T14:47:08.761Z,42.44
2023-03-19T14:50:12.419Z,41.90
2023-03-19T14:53:21.588Z,42.51
2023-03-19T14:55:53.091Z,42.79
2023-03-19T14:58:21.278Z,43.26
2023-03-19T15:00:52.201Z,43.64
2023-03-19T15:03:37.349Z,43.81
2023-03-19T15:06:06.095Z,44.20
2023-03-19T15:08:33.808Z,44.31
2023-03-19T15:11:03.479Z,43.90
2023-03-19T15:14:00.914Z,44.37
2023-03-19T15:16:43.061Z,43.91
2023-03-19T15:19:10.654Z,44.07
2023-03-19T15:21:42.013Z,43.79
2023-03-19T15:24:14.648Z,43.96
2023-03-19T15:26:42.808Z,44.06
2023-03-19T15:29:12.435Z,43.91
2023-03-19T15:31:57.646Z,44.26
2023-03-19T15:34:31.322Z,43.41
2023-03-19T15:37:02.638Z,43.56
2023-03-19T15:39:31.505Z,43.95
2023-03-19T15:42:00.914Z,44.53
2023-03-19T15:44:33.961Z,45.46
2023-03-19T15:47:01.925Z,45.79
2023-03-19T15:49:30.732Z,46.45
2023-03-19T15:52:03.576Z,47.03
2023-03-19T15:54:31.263Z,46.93
2023-03-19T15:56:58.893Z,47.36
2023-03-19T15:59:30.077Z,47.25
2023-03-19T16:01:59.761Z,47.72
2023-03-19T16:05:03.564Z,47.99
2023-03-19T16:07:30.478Z,48.08
2023-03-19T16:10:16.576Z,48.00
2023-03-19T16:12:51.089Z,48.47
2023-03-19T16:15:29.058Z,48.86
2023-03-19T16:17:56.973Z,48.39
2023-03-19T16:20:25.296Z,48.05
2023-03-19T16:22:58.661Z,47.90
2023-03-19T16:25:28.661Z,47.89
2023-03-19T16:27:56.011Z,48.13
2023-03-19T16:30:25.892Z,48.16
2023-03-19T16:33:05.435Z,48.62
2023-03-19T16:35:33.281Z,48.77
2023-03-19T16:38:19.278Z,49.17
2023-03-19T16:40:47.586Z,49.88
2023-03-19T16:43:23.117Z,50.75
2023-03-19T16:46:03.994Z,50.94
2023-03-19T16:48:38.195Z,51.50
2023-03-19T16:51:06.781Z,51.35
2023-03-19T16:53:34.651Z,51.24
2023-03-19T16:56:03.440Z,51.54
2023-03-19T16:58:33.091Z,51.98
2023-03-19T17:01:00.885Z,52.25
2023-03-19T17:03:30.361Z,52.63
2023-03-19T17:05:57.542Z,53.00
2023-03-19T17:08:26.480Z,52.94
2023-03-19T17:10:57.145Z,52.86
2023-03-19T17:13:28.450Z,52.30
2023-03-19T17:15:57.670Z,53.20
2023-03-19T17:18:48.512Z,53.26
2023-03-19T17:21:22.280Z,53.66
2023-03-19T17:23:49.968Z,53.77
2023-03-19T17:26:22.720Z,54.05
2023-03-19T17:28:50.772Z,54.46
2023-03-19T17:31:23.071Z,54.55
2023-03-19T17:33:49.890Z,55.14
2023-03-19T17:36:17.068Z,55.08
2023-03-19T17:38:44.739Z,55.74
2023-03-19T17:41:17.206Z,55.79
2023-03-19T17:43:45.494Z,56.00
2023-03-19T17:46:33.249Z,57.50
2023-03-19T17:49:01.339Z,59.13
2023-03-19T17:51:29.039Z,61.23
2023-03-19T17:53:57.093Z,63.52
2023-03-19T17:56:26.042Z,64.49
2023-03-19T17:58:53.905Z,64.85
2023-03-19T18:01:23.617Z,66.04
2023-03-19T18:03:51.670Z,67.52
2023-03-19T18:06:40.538Z,68.67
2023-03-19T18:09:10.147Z,70.73
2023-03-19T18:11:38.606Z,72.10
2023-03-19T18:14:06.266Z,73.71
2023-03-19T18:16:33.986Z,75.02
2023-03-19T18:19:02.536Z,75.50
2023-03-19T18:21:30.172Z,75.67
2023-03-19T18:23:57.656Z,76.84
2023-03-19T18:26:26.163Z,77.03
2023-03-19T18:28:54.292Z,77.70
2023-03-19T18:31:25.797Z,78.36
2023-03-19T18:34:15.900Z,79.23
2023-03-19T18:36:43.092Z,79.36
2023-03-19T18:39:14.712Z,80.58
2023-03-19T18:41:42.514Z,80.86
2023-03-19T18:44:10.289Z,81.85
2023-03-19T18:46:38.900Z,82.41
2023-03-19T18:49:23.106Z,83.70
2023-03-19T18:52:01.555Z,83.59
2023-03-19T18:54:31.266Z,84.18
2023-03-19T18:56:59.756Z,86.07
2023-03-19T18:59:28.629Z,86.29
2023-03-19T19:01:59.452Z,87.49
2023-03-19T19:04:29.678Z,88.79
2023-03-19T19:06:58.431Z,87.67
2023-03-19T19:09:26.709Z,89.75
2023-03-19T19:11:54.771Z,91.36
2023-03-19T19:14:22.923Z,91.44
2023-03-19T19:16:50.953Z,92.13
2023-03-19T19:19:22.656Z,91.72
2023-03-19T19:21:53.793Z,90.92
2023-03-19T19:24:22.171Z,91.16
2023-03-19T19:26:51.717Z,91.83
2023-03-19T19:29:29.474Z,93.07
2023-03-19T19:31:57.393Z,94.28
2023-03-19T19:34:25.488Z,94.75
2023-03-19T19:36:55.608Z,95.19
2023-03-19T19:39:23.878Z,94.92
2023-03-19T19:41:56.578Z,94.66
2023-03-19T19:44:24.550Z,95.19
2023-03-19T19:46:54.581Z,96.00
2023-03-19T19:49:22.506Z,97.77
2023-03-19T19:51:51.139Z,98.80
2023-03-19T19:54:18.825Z,99.65
2023-03-19T19:56:47.000Z,99.80
2023-03-19T19:59:14.990Z,100.00
2023-03-19T20:01:43.747Z,100.00
2023-03-19T20:04:35.057Z,100.00
2023-03-19T20:07:03.284Z,99.50
2023-03-19T20:09:31.450Z,100.00
2023-03-19T20:11:59.350Z,100.00
2023-03-19T20:14:27.091Z,100.00
2023-03-19T20:16:58.400Z,100.00
2023-03-19T20:19:25.873Z,100.00
2023-03-19T20:21:54.440Z,100.00
2023-03-19T20:24:22.618Z,100.00
2023-03-19T20:26:50.526Z,100.00
2023-03-19T20:29:18.714Z,100.00
2023-03-19T20:31:46.813Z,100.00
2023-03-19T20:34:22.438Z,100.00
2023-03-19T20:36:56.490Z,100.00
2023-03-19T20:39:24.300Z,100.00
2023-03-19T20:41:51.894Z,100.00
2023-03-19T20:44:22.430Z,100.00
2023-03-19T20:46:49.678Z,100.00
2023-03-19T20:49:17.444Z,100.00
2023-03-19T20:51:46.525Z,100.00
2023-03-19T20:54:14.633Z,100.00
2023-03-19T20:56:41.994Z,100.00
2023-03-19T20:59:11.729Z,100.00
2023-03-19T21:01:40.171Z,100.00
2023-03-19T21:04:12.176Z,100.00
2023-03-19T21:06:52.545Z,100.00
2023-03-19T21:09:21.636Z,100.00
2023-03-19T21:11:49.312Z,100.00
2023-03-19T21:14:16.952Z,100.00
2023-03-19T21:16:45.539Z,100.00
2023-03-19T21:19:13.460Z,100.00
2023-03-19T21:21:42.880Z,100.00
2023-03-19T21:24:20.090Z,100.00
2023-03-19T21:26:54.805Z,100.00
2023-03-19T21:29:31.260Z,100.00
2023-03-19T21:31:59.606Z,100.00
2023-03-19T21:34:28.539Z,100.00
2023-03-19T21:36:56.421Z,100.00
2023-03-19T21:39:23.933Z,100.00
2023-03-19T21:41:51.116Z,100.00
2023-03-19T21:44:19.990Z,100.00
2023-03-19T21:46:47.820Z,100.00
2023-03-19T21:49:16.400Z,100.00
2023-03-19T21:51:44.313Z,100.00
2023-03-19T21:54:12.436Z,100.00
2023-03-19T21:56:40.903Z,100.00
2023-03-19T21:59:33.796Z,100.00
2023-03-19T22:02:01.908Z,100.00
2023-03-19T22:04:29.834Z,100.00
2023-03-19T22:06:57.585Z,100.00
2023-03-19T22:09:25.431Z,100.00
2023-03-19T22:11:53.463Z,100.00
2023-03-19T22:14:28.236Z,100.00
2023-03-19T22:16:56.264Z,100.00
2023-03-19T22:19:23.929Z,100.00
2023-03-19T22:21:52.237Z,100.00
2023-03-19T22:24:20.189Z,100.00
2023-03-19T22:26:49.111Z,100.00
2023-03-19T22:29:23.719Z,100.00
2023-03-19T22:31:51.781Z,100.00
2023-03-19T22:34:21.555Z,100.00
2023-03-19T22:36:49.702Z,100.00
2023-03-19T22:39:16.951Z,100.00
2023-03-19T22:41:47.962Z,100.00
2023-03-19T22:44:28.393Z,100.00
2023-03-19T22:46:56.535Z,100.00
2023-03-19T22:49:24.853Z,100.00
2023-03-19T22:51:52.968Z,100.00
2023-03-19T22:54:21.243Z,100.00
2023-03-19T22:56:50.389Z,100.00
2023-03-19T22:59:18.940Z,100.00
2023-03-19T23:01:46.800Z,100.00
2023-03-19T23:04:22.798Z,100.00
2023-03-19T23:06:50.814Z,100.00
2023-03-19T23:09:20.637Z,100.00
2023-03-19T23:11:49.463Z,100.00
2023-03-19T23:14:28.914Z,100.00
2023-03-19T23:19:39.157Z,100.00
2023-03-19T23:22:06.792Z,100.00
2023-03-19T23:24:34.925Z,100.00
2023-03-19T23:27:03.213Z,100.00
2023-03-19T23:29:33.123Z,100.00
2023-03-19T23:32:00.977Z,100.00
2023-03-19T23:34:28.846Z,100.00
2023-03-19T23:36:56.858Z,100.00
2023-03-19T23:39:24.053Z,100.00
2023-03-19T23:41:53.582Z,100.00
2023-03-19T23:44:21.249Z,100.00
2023-03-19T23:46:49.385Z,100.00
2023-03-19T23:49:29.017Z,100.00
2023-03-19T23:51:57.524Z,100.00
2023-03-19T23:54:30.202Z,100.00
2023-03-19T23:56:59.653Z,100.00
2023-03-19T23:59:27.602Z,100.00
